Time;durP1;ratioP1;P1;durP2;ratioP2;P2;SDS_P1;SDS_P2;PMS_P1;PMS_P2;Temp;Humidity;BMP_temperature;BMP_pressure;BME280_temperature;BME280_humidity;BME280_pressure;Samples;Min_cycle;Max_cycle;Signal;HPM_P1;HPM_P2
2022/09/21 00:01:13;;;;;;;11.25;4.97;;;281.70;2278.40;;;;;;5015416;28;20026;-81
2022/09/21 00:03:42;;;;;;;7.97;4.68;;;281.80;2278.40;;;;;;5016732;28;20022;-82
2022/09/21 00:06:19;;;;;;;10.63;5.13;;;281.70;2278.40;;;;;;5015148;28;20062;-82
2022/09/21 00:08:45;;;;;;;8.95;5.38;;;281.80;2278.40;;;;;;5015230;28;20614;-82
2022/09/21 00:11:13;;;;;;;10.48;4.90;;;256.80;2252.80;;;;;;5015306;28;20062;-82
2022/09/21 00:13:40;;;;;;;8.02;4.72;;;281.70;2278.40;;;;;;5014274;28;20036;-82
2022/09/21 00:16:07;;;;;;;11.57;5.35;;;281.70;2278.40;;;;;;5015198;28;20030;-80
2022/09/21 00:18:34;;;;;;;9.77;4.90;;;256.90;2252.80;;;;;;5016093;28;20034;-81
2022/09/21 00:21:01;;;;;;;9.13;5.28;;;281.60;2278.40;;;;;;5016316;28;20032;-82
2022/09/21 00:23:28;;;;;;;8.75;5.68;;;281.70;2278.40;;;;;;5048167;28;20030;-81
2022/09/21 00:26:04;;;;;;;9.43;5.68;;;281.80;2278.40;;;;;;5026159;28;20030;-81
2022/09/21 00:28:30;;;;;;;12.75;5.13;;;281.80;2278.40;;;;;;5016197;28;20040;-81
2022/09/21 00:31:01;;;;;;;9.73;6.30;;;281.80;2278.40;;;;;;5015112;28;20101;-81
2022/09/21 00:33:27;;;;;;;10.93;5.50;;;281.80;2278.40;;;;;;5026600;28;20029;-81
2022/09/21 00:35:52;;;;;;;8.18;5.22;;;281.80;2278.40;;;;;;5032292;28;20539;-81
2022/09/21 00:38:18;;;;;;;8.65;5.15;;;281.80;2278.40;;;;;;5034799;28;20509;-81
2022/09/21 00:40:44;;;;;;;8.18;4.85;;;281.70;2278.40;;;;;;5034347;28;20079;-82
2022/09/21 00:43:15;;;;;;;10.00;5.15;;;281.80;2278.40;;;;;;5046168;28;20072;-80
2022/09/21 00:45:42;;;;;;;9.80;5.07;;;281.90;2278.40;;;;;;5037778;28;20025;-81
2022/09/21 00:48:08;;;;;;;7.85;4.82;;;281.80;2278.40;;;;;;5037303;28;20475;-82
2022/09/21 00:50:37;;;;;;;6.70;4.30;;;281.70;2278.40;;;;;;5037548;28;20025;-82
2022/09/21 00:53:03;;;;;;;9.27;4.60;;;282.00;2278.40;;;;;;5055082;28;20094;-82
2022/09/21 00:55:53;;;;;;;5.97;4.30;;;282.00;2278.40;;;;;;5070403;28;20514;-82
2022/09/21 00:58:26;;;;;;;7.63;4.15;;;282.00;2278.40;;;;;;5055282;28;20036;-82
2022/09/21 01:00:53;;;;;;;7.93;4.30;;;281.80;2278.40;;;;;;5037144;28;20463;-82
2022/09/21 01:03:18;;;;;;;8.88;6.03;;;281.80;2278.40;;;;;;5037336;28;20524;-81
2022/09/21 01:05:44;;;;;;;6.97;4.38;;;281.90;2278.40;;;;;;5037479;28;20067;-81
2022/09/21 01:08:14;;;;;;;6.80;4.50;;;281.90;2278.40;;;;;;5037102;28;20123;-81
2022/09/21 01:11:21;;;;;;;8.52;4.32;;;281.80;2278.40;;;;;;5055060;28;20410;-82
2022/09/21 01:14:13;;;;;;;7.57;4.22;;;281.90;2278.40;;;;;;5032252;28;20033;-82
2022/09/21 01:17:02;;;;;;;7.80;4.78;;;281.90;2278.40;;;;;;5036845;28;20021;-81
2022/09/21 01:19:40;;;;;;;8.98;4.78;;;256.90;2252.80;;;;;;5037055;28;20037;-82
2022/09/21 01:22:17;;;;;;;7.72;4.55;;;256.70;2252.80;;;;;;5053413;28;20443;-82
2022/09/21 01:25:14;;;;;;;9.55;4.82;;;256.90;2252.80;;;;;;5035927;28;20382;-82
2022/09/21 01:27:56;;;;;;;7.68;4.30;;;256.90;2252.80;;;;;;5054990;28;20028;-82
2022/09/21 01:30:23;;;;;;;8.50;4.13;;;256.80;2252.80;;;;;;5069859;28;20083;-81
2022/09/21 01:33:24;;;;;;;9.02;4.72;;;256.80;2252.80;;;;;;5036742;28;20115;-82
2022/09/21 01:35:56;;;;;;;9.55;5.47;;;256.80;2252.80;;;;;;5036469;28;20070;-82
2022/09/21 01:38:32;;;;;;;10.27;6.07;;;256.60;2252.80;;;;;;5036773;28;20064;-82
2022/09/21 01:41:03;;;;;;;12.15;6.30;;;256.70;2252.80;;;;;;5054603;28;20467;-82
2022/09/21 01:43:36;;;;;;;11.10;5.57;;;256.50;2252.80;;;;;;5035839;28;20044;-82
2022/09/21 01:46:05;;;;;;;10.52;5.15;;;256.30;2252.80;;;;;;5036572;28;20035;-82
2022/09/21 01:48:39;;;;;;;10.55;5.68;;;256.40;2252.80;;;;;;5036561;28;20115;-82
2022/09/21 01:51:09;;;;;;;11.45;5.65;;;256.50;2252.80;;;;;;5054279;28;20021;-82
2022/09/21 01:53:40;;;;;;;10.20;6.20;;;256.50;2252.80;;;;;;5036337;28;20067;-82
2022/09/21 01:56:12;;;;;;;12.27;5.80;;;256.60;2252.80;;;;;;5052929;28;20075;-82
2022/09/21 01:58:49;;;;;;;10.00;5.75;;;256.60;2252.80;;;;;;5054148;28;20056;-82
2022/09/21 02:01:20;;;;;;;11.23;5.13;;;256.70;2252.80;;;;;;5054318;28;20029;-82
2022/09/21 02:04:12;;;;;;;9.70;6.00;;;256.70;2252.80;;;;;;5069396;28;20482;-82
2022/09/21 02:06:42;;;;;;;9.93;5.27;;;256.70;2252.80;;;;;;5034969;28;20033;-82
2022/09/21 02:09:09;;;;;;;10.63;5.18;;;256.70;2252.80;;;;;;5036297;28;20029;-82
2022/09/21 02:11:43;;;;;;;12.20;4.68;;;256.50;2252.80;;;;;;5035924;28;20021;-80
2022/09/21 02:14:13;;;;;;;9.18;4.85;;;256.60;2252.80;;;;;;5036065;28;20029;-82
2022/09/21 02:16:47;;;;;;;8.15;4.88;;;256.50;2252.80;;;;;;5035988;28;20070;-82
2022/09/21 02:19:39;;;;;;;9.32;5.05;;;256.50;2252.80;;;;;;5052151;28;20028;-81
2022/09/21 02:22:09;;;;;;;9.30;5.18;;;256.40;2252.80;;;;;;5036102;28;20074;-81
2022/09/21 02:24:53;;;;;;;11.18;5.55;;;256.30;2252.80;;;;;;5035139;28;20021;-81
2022/09/21 02:27:38;;;;;;;7.20;4.75;;;256.20;2252.80;;;;;;5035941;28;20021;-81
2022/09/21 02:30:20;;;;;;;8.43;4.40;;;256.30;2252.80;;;;;;5051396;28;20386;-82
2022/09/21 02:33:12;;;;;;;10.18;5.38;;;256.20;2252.80;;;;;;5036636;28;20024;-81
2022/09/21 02:35:41;;;;;;;12.02;4.68;;;;;;;;;;5031871;28;20033;-82
2022/09/21 02:38:15;;;;;;;9.70;4.13;;;;;;;;;;5050526;28;20033;-80
2022/09/21 02:40:47;;;;;;;7.32;4.32;;;256.40;2252.80;;;;;;5050941;28;20021;-82
2022/09/21 02:43:29;;;;;;;9.25;4.18;;;256.30;2252.80;;;;;;5052189;28;20060;-82
2022/09/21 02:46:18;;;;;;;5.97;4.25;;;256.10;2252.80;;;;;;5035739;28;20541;-83
2022/09/21 02:48:48;;;;;;;6.32;3.80;;;256.10;2252.80;;;;;;5035654;28;20466;-82
2022/09/21 02:51:21;;;;;;;7.18;4.03;;;256.20;2252.80;;;;;;5035735;28;20046;-83
2022/09/21 02:53:49;;;;;;;5.95;4.13;;;256.30;2252.80;;;;;;5035476;28;20117;-81
2022/09/21 02:56:16;;;;;;;7.00;4.28;;;256.20;2252.80;;;;;;5035533;28;20061;-82
2022/09/21 02:58:49;;;;;;;6.85;4.40;;;256.50;2252.80;;;;;;5035453;28;20124;-82
2022/09/21 03:01:17;;;;;;;9.38;4.72;;;256.20;2252.80;;;;;;5035424;28;20050;-82
2022/09/21 03:03:43;;;;;;;8.25;4.97;;;231.30;2252.80;;;;;;5053735;28;20459;-82
2022/09/21 03:06:10;;;;;;;7.68;4.55;;;;;;;;;;5053381;28;20021;-82
2022/09/21 03:08:36;;;;;;;10.90;4.88;;;;;;;;;;5052676;28;20032;-82
2022/09/21 03:11:02;;;;;;;10.98;4.63;;;;;;;;;;5051989;28;20056;-81
2022/09/21 03:13:29;;;;;;;7.60;4.50;;;;;;;;;;5051858;28;20375;-83
2022/09/21 03:15:59;;;;;;;8.38;4.07;;;;;;;;;;5052065;28;20028;-82
2022/09/21 03:18:25;;;;;;;12.63;4.85;;;;;;;;;;5051962;28;20029;-82
2022/09/21 03:20:51;;;;;;;7.63;4.38;;;;;;;;;;5053318;28;20474;-83
2022/09/21 03:23:17;;;;;;;9.63;4.57;;;;;;;;;;5051948;28;20025;-82
2022/09/21 03:25:45;;;;;;;8.65;5.65;;;;;;;;;;5051924;28;20021;-83
2022/09/21 03:28:12;;;;;;;13.27;4.63;;;;;;;;;;5051608;28;20025;-83
2022/09/21 03:30:38;;;;;;;12.98;4.68;;;;;;;;;;5051846;28;20032;-82
2022/09/21 03:33:05;;;;;;;8.75;5.07;;;;;;;;;;5049503;28;20021;-82
2022/09/21 03:35:34;;;;;;;7.57;4.30;;;;;;;;;;5051519;28;20430;-82
2022/09/21 03:38:00;;;;;;;14.25;4.80;;;;;;;;;;5050654;28;20574;-81
2022/09/21 03:40:26;;;;;;;12.20;4.55;;;;;;;;;;5052794;28;20021;-81
2022/09/21 03:42:53;;;;;;;10.18;4.53;;;;;;;;;;5051124;28;20053;-82
2022/09/21 03:45:26;;;;;;;6.63;4.60;;;;;;;;;;5051803;28;20025;-82
2022/09/21 03:47:55;;;;;;;9.48;5.85;;;;;;;;;;5052929;28;20021;-82
2022/09/21 03:50:21;;;;;;;9.23;5.25;;;;;;;;;;5055050;28;20029;-82
2022/09/21 03:52:48;;;;;;;7.43;4.32;;;;;;;;;;5055311;28;20358;-82
2022/09/21 03:55:14;;;;;;;9.32;4.43;;;;;;;;;;5055341;28;20032;-81
2022/09/21 03:57:40;;;;;;;5.75;3.35;;;;;;;;;;5054799;28;20032;-82
2022/09/21 04:00:08;;;;;;;5.97;3.75;;;;;;;;;;5055256;28;20048;-81
2022/09/21 04:02:35;;;;;;;8.48;3.88;;;;;;;;;;5050350;28;20182;-82
2022/09/21 04:05:01;;;;;;;7.13;4.35;;;;;;;;;;5070312;28;20116;-82
2022/09/21 04:07:32;;;;;;;9.90;5.75;;;231.10;2252.80;;;;;;5053674;28;20029;-82
2022/09/21 04:09:58;;;;;;;10.63;4.90;;;231.20;2252.80;;;;;;5037568;28;20516;-82
2022/09/21 04:12:24;;;;;;;14.15;5.18;;;231.10;2252.80;;;;;;5038498;28;20063;-83
2022/09/21 04:14:50;;;;;;;13.60;5.30;;;230.80;2252.80;;;;;;5038229;28;20363;-83
2022/09/21 04:17:16;;;;;;;10.65;5.20;;;;;;;;;;5038221;28;20063;-82
2022/09/21 04:19:44;;;;;;;9.10;4.90;;;230.80;2252.80;;;;;;5054846;28;20029;-83
2022/09/21 04:22:11;;;;;;;9.88;5.15;;;;;;;;;;5038230;28;20037;-82
2022/09/21 04:24:39;;;;;;;11.98;5.00;;;;;;;;;;5054524;28;20053;-83
2022/09/21 04:27:07;;;;;;;17.05;5.70;;;231.00;2252.80;;;;;;5054728;28;20079;-83
2022/09/21 04:29:32;;;;;;;9.27;5.88;;;231.00;2252.80;;;;;;5055496;28;20025;-82
2022/09/21 04:31:58;;;;;;;11.63;9.05;;;231.00;2252.80;;;;;;5071050;28;20056;-83
2022/09/21 04:34:25;;;;;;;13.07;8.05;;;231.00;2252.80;;;;;;5044370;28;20024;-82
2022/09/21 04:36:53;;;;;;;10.52;5.70;;;231.00;2252.80;;;;;;5075154;28;20084;-82
2022/09/21 04:39:19;;;;;;;9.18;6.75;;;230.90;2252.80;;;;;;5041704;28;20051;-82
2022/09/21 04:41:45;;;;;;;11.98;6.20;;;230.90;2252.80;;;;;;5038033;28;20032;-83
2022/09/21 04:44:11;;;;;;;7.63;5.60;;;;;;;;;;5034126;28;20411;-83
2022/09/21 04:46:37;;;;;;;10.02;5.43;;;231.00;2252.80;;;;;;5051031;28;20026;-83
2022/09/21 04:49:03;;;;;;;10.75;5.97;;;231.00;2252.80;;;;;;5034586;28;20386;-84
2022/09/21 04:51:30;;;;;;;10.85;5.97;;;230.70;2252.80;;;;;;5067388;28;20021;-84
2022/09/21 04:53:56;;;;;;;8.32;5.38;;;230.90;2252.80;;;;;;5034328;28;20025;-83
2022/09/21 04:56:21;;;;;;;12.65;6.40;;;231.00;2252.80;;;;;;5077372;28;20083;-84
2022/09/21 04:58:47;;;;;;;20.30;6.78;;;231.00;2252.80;;;;;;5053083;28;20041;-83
2022/09/21 05:01:13;;;;;;;10.77;6.30;;;230.60;2252.80;;;;;;5053108;28;20021;-83
2022/09/21 05:03:39;;;;;;;15.32;6.90;;;230.90;2252.80;;;;;;5054198;28;20025;-83
2022/09/21 05:06:05;;;;;;;13.93;5.97;;;230.90;2252.80;;;;;;5053757;28;20025;-82
2022/09/21 05:11:18;;;;;;;10.00;4.97;;;231.10;2252.80;;;;;;5055318;28;20540;-82
2022/09/21 05:13:45;;;;;;;9.55;5.57;;;231.10;2252.80;;;;;;5053504;28;20029;-82
2022/09/21 05:16:11;;;;;;;11.18;6.35;;;231.20;2252.80;;;;;;5053672;28;20029;-83
2022/09/21 05:18:36;;;;;;;11.02;6.85;;;231.20;2252.80;;;;;;5053690;28;20032;-82
2022/09/21 05:21:05;;;;;;;16.60;6.32;;;230.90;2252.80;;;;;;5053543;28;20021;-82
2022/09/21 05:23:31;;;;;;;9.65;5.20;;;231.10;2252.80;;;;;;5053521;28;20023;-83
2022/09/21 05:25:58;;;;;;;10.20;6.13;;;231.20;2252.80;;;;;;5038586;28;20067;-83
2022/09/21 05:28:25;;;;;;;12.75;6.90;;;256.10;2252.80;;;;;;5066458;28;20029;-83
2022/09/21 05:30:58;;;;;;;13.98;9.82;;;231.20;2252.80;;;;;;5033942;28;20079;-83
2022/09/21 05:33:29;;;;;;;16.15;10.10;;;256.10;2252.80;;;;;;5031224;28;20044;-82
2022/09/21 05:36:10;;;;;;;14.20;7.88;;;256.10;2252.80;;;;;;5033348;28;20069;-82
2022/09/21 05:38:36;;;;;;;11.80;7.70;;;231.30;2252.80;;;;;;5065447;28;20111;-83
2022/09/21 05:41:02;;;;;;;13.63;8.20;;;231.30;2252.80;;;;;;5033253;28;20068;-82
2022/09/21 05:43:28;;;;;;;14.23;9.60;;;256.00;2252.80;;;;;;5033103;28;20131;-83
2022/09/21 05:46:20;;;;;;;21.40;11.35;;;231.30;2252.80;;;;;;5032864;28;20036;-83
2022/09/21 05:49:23;;;;;;;18.58;9.50;;;231.30;2252.80;;;;;;5032876;28;20033;-82
2022/09/21 05:52:04;;;;;;;17.60;9.73;;;256.10;2252.80;;;;;;5033239;28;20499;-82
2022/09/21 05:54:57;;;;;;;19.23;13.07;;;256.10;2252.80;;;;;;5066075;28;20068;-82
2022/09/21 05:57:23;;;;;;;23.92;13.27;;;256.30;2252.80;;;;;;5033075;28;20032;-82
2022/09/21 05:59:48;;;;;;;19.73;14.43;;;256.50;2252.80;;;;;;5032981;28;20041;-82
2022/09/21 06:02:47;;;;;;;17.90;12.60;;;256.50;2252.80;;;;;;5032703;28;20025;-83
2022/09/21 06:05:15;;;;;;;13.63;9.13;;;256.50;2252.80;;;;;;5032703;28;20033;-82
2022/09/21 06:07:41;;;;;;;13.30;8.13;;;256.50;2252.80;;;;;;5034195;28;20566;-83
2022/09/21 06:10:12;;;;;;;16.23;7.97;;;256.60;2252.80;;;;;;5032251;28;20112;-83
2022/09/21 06:12:39;;;;;;;13.55;7.70;;;256.30;2252.80;;;;;;5033124;28;20052;-83
2022/09/21 06:15:06;;;;;;;16.70;8.63;;;256.10;2252.80;;;;;;5033003;28;20451;-83
2022/09/21 06:17:32;;;;;;;15.82;9.68;;;256.30;2252.80;;;;;;5032458;28;20021;-83
2022/09/21 06:19:58;;;;;;;11.85;8.38;;;256.40;2252.80;;;;;;5065937;28;19920;-83
2022/09/21 06:22:24;;;;;;;13.77;8.00;;;256.40;2252.80;;;;;;5033854;28;20052;-82
2022/09/21 06:24:50;;;;;;;12.43;8.82;;;256.50;2252.80;;;;;;5032773;28;20037;-84
2022/09/21 06:27:15;;;;;;;15.15;8.45;;;256.60;2252.80;;;;;;5033736;28;20029;-81
2022/09/21 06:29:41;;;;;;;14.65;9.93;;;256.60;2252.80;;;;;;5032217;28;20430;-81
2022/09/21 06:32:07;;;;;;;18.55;11.15;;;256.50;2252.80;;;;;;5032357;28;20037;-81
2022/09/21 06:34:33;;;;;;;19.17;12.88;;;256.70;2252.80;;;;;;5031693;28;20541;-83
2022/09/21 06:36:58;;;;;;;17.90;9.80;;;256.70;2252.80;;;;;;5031882;28;20025;-83
2022/09/21 06:39:24;;;;;;;17.05;10.25;;;256.60;2252.80;;;;;;5031960;28;20030;-84
2022/09/21 06:41:51;;;;;;;14.48;9.82;;;256.50;2252.80;;;;;;5032683;28;20457;-83
2022/09/21 06:44:17;;;;;;;14.63;10.02;;;256.50;2252.80;;;;;;5032136;28;20146;-83
2022/09/21 06:46:42;;;;;;;19.08;10.65;;;256.70;2252.80;;;;;;5032801;28;20114;-83
2022/09/21 06:49:08;;;;;;;16.30;9.77;;;256.40;2252.80;;;;;;5033555;28;20029;-82
2022/09/21 06:51:35;;;;;;;12.63;9.85;;;256.50;2252.80;;;;;;5032186;28;20380;-82
2022/09/21 06:54:01;;;;;;;14.15;8.90;;;256.60;2252.80;;;;;;5032463;28;20025;-83
2022/09/21 06:56:27;;;;;;;14.65;9.55;;;256.50;2252.80;;;;;;5033561;28;20459;-83
2022/09/21 06:58:53;;;;;;;20.33;10.60;;;256.50;2252.80;;;;;;5033368;28;20065;-83
2022/09/21 07:01:19;;;;;;;15.90;10.73;;;256.90;2252.80;;;;;;5032213;28;20026;-83
2022/09/21 07:03:49;;;;;;;19.05;12.20;;;281.60;2278.40;;;;;;5031176;28;20059;-83
2022/09/21 07:06:16;;;;;;;17.45;12.13;;;281.70;2278.40;;;;;;5031525;28;20025;-81
2022/09/21 07:08:43;;;;;;;18.77;13.05;;;281.80;2278.40;;;;;;5031296;28;20029;-81
2022/09/21 07:11:10;;;;;;;19.75;12.65;;;282.00;2278.40;;;;;;5032520;28;20056;-82
2022/09/21 07:13:36;;;;;;;22.75;15.98;;;281.70;2278.40;;;;;;5033349;28;20489;-84
2022/09/21 07:16:06;;;;;;;24.85;14.25;;;256.90;2252.80;;;;;;5032336;28;20116;-82
2022/09/21 07:18:33;;;;;;;17.40;11.73;;;256.90;2252.80;;;;;;5033131;28;20056;-82
2022/09/21 07:21:03;;;;;;;16.40;11.70;;;256.90;2252.80;;;;;;5033545;28;20486;-83
2022/09/21 07:23:28;;;;;;;22.60;14.48;;;281.80;2278.40;;;;;;5034300;28;20055;-80
2022/09/21 07:25:54;;;;;;;22.92;13.65;;;282.00;2278.40;;;;;;5035693;28;20112;-81
2022/09/21 07:28:20;;;;;;;18.45;12.90;;;282.10;2278.40;;;;;;5035963;28;20475;-79
2022/09/21 07:30:46;;;;;;;23.08;14.30;;;282.20;2278.40;;;;;;5035995;28;20112;-81
2022/09/21 07:33:12;;;;;;;22.33;13.57;;;282.30;2278.40;;;;;;5035446;28;20525;-80
2022/09/21 07:35:38;;;;;;;16.65;12.45;;;282.30;2278.40;;;;;;5035738;28;20541;-80
2022/09/21 07:38:06;;;;;;;22.20;15.75;;;282.40;2278.40;;;;;;5035487;28;20129;-80
2022/09/21 07:40:33;;;;;;;18.45;13.38;;;282.40;2278.40;;;;;;5035467;28;20040;-80
2022/09/21 07:43:03;;;;;;;21.23;13.80;;;282.40;2278.40;;;;;;5035285;28;20083;-82
2022/09/21 07:45:30;;;;;;;19.27;13.20;;;282.30;2278.40;;;;;;5037005;28;20017;-81
2022/09/21 07:48:04;;;;;;;18.17;12.50;;;282.30;2278.40;;;;;;5036819;28;20025;-82
2022/09/21 07:50:32;;;;;;;17.08;12.93;;;282.30;2278.40;;;;;;5035805;28;20029;-84
2022/09/21 07:52:59;;;;;;;22.33;11.68;;;282.50;2278.40;;;;;;5036134;28;20422;-84
2022/09/21 07:55:25;;;;;;;23.58;13.65;;;307.20;2304.00;;;;;;5035793;28;20034;-83
2022/09/21 08:00:37;;;;;;;20.48;12.77;;;307.30;2304.00;;;;;;5036641;28;20105;-82
2022/09/21 08:03:03;;;;;;;20.35;13.05;;;307.50;2304.00;;;;;;5035222;28;20034;-83
2022/09/21 08:05:30;;;;;;;17.48;12.55;;;307.50;2304.00;;;;;;5036407;28;20025;-82
2022/09/21 08:07:56;;;;;;;16.98;12.43;;;307.40;2304.00;;;;;;5034916;28;20041;-81
2022/09/21 08:10:23;;;;;;;17.27;11.73;;;307.50;2304.00;;;;;;5035186;28;20410;-81
2022/09/21 08:12:49;;;;;;;20.00;12.88;;;307.50;2304.00;;;;;;5034934;28;20437;-81
2022/09/21 08:15:16;;;;;;;16.45;10.95;;;307.70;2304.00;;;;;;5034598;28;20025;-78
2022/09/21 08:17:43;;;;;;;19.77;12.25;;;307.70;2304.00;;;;;;5034802;28;20026;-82
2022/09/21 08:20:09;;;;;;;15.50;10.75;;;307.70;2304.00;;;;;;5036148;28;20417;-81
2022/09/21 08:22:35;;;;;;;17.63;11.50;;;307.80;2304.00;;;;;;5034477;28;20036;-81
2022/09/21 08:25:01;;;;;;;19.08;11.80;;;307.90;2304.00;;;;;;5034691;28;20112;-83
2022/09/21 08:27:27;;;;;;;16.10;12.18;;;307.90;2304.00;;;;;;5034748;28;20036;-82
2022/09/21 08:29:54;;;;;;;16.25;11.30;;;307.90;2304.00;;;;;;5034526;28;20426;-82
2022/09/21 08:32:19;;;;;;;13.23;9.75;;;308.00;2304.00;;;;;;5034737;28;20360;-82
2022/09/21 08:34:45;;;;;;;12.20;8.52;;;308.10;2304.00;;;;;;5034122;28;20024;-80
2022/09/21 08:37:11;;;;;;;13.88;9.23;;;308.10;2304.00;;;;;;5035275;28;20025;-81
2022/09/21 08:39:37;;;;;;;14.00;8.63;;;332.80;2329.60;;;;;;5034674;28;20033;-82
2022/09/21 08:42:18;;;;;;;19.35;10.73;;;308.10;2304.00;;;;;;5036510;28;20464;-82
2022/09/21 08:44:56;;;;;;;12.68;8.35;;;307.90;2304.00;;;;;;5037743;28;20029;-83
2022/09/21 08:47:40;;;;;;;13.23;8.02;;;308.00;2304.00;;;;;;5037792;28;20024;-82
2022/09/21 08:50:23;;;;;;;14.80;8.20;;;332.80;2329.60;;;;;;5037436;28;20052;-82
2022/09/21 08:52:53;;;;;;;;;;;333.10;2329.60;;;;;;5055246;28;20064;-84
2022/09/21 08:55:20;;;;;;;14.13;7.60;;;333.20;2329.60;;;;;;5037768;28;19917;-82
2022/09/21 08:57:45;;;;;;;17.13;8.70;;;332.90;2329.60;;;;;;5037321;28;20119;-84
2022/09/21 09:00:17;;;;;;;14.13;8.10;;;332.90;2329.60;;;;;;5055455;28;20104;-81
2022/09/21 09:03:06;;;;;;;14.82;8.70;;;333.10;2329.60;;;;;;5037641;28;20031;-84
2022/09/21 09:06:02;;;;;;;12.88;8.50;;;333.30;2329.60;;;;;;5054182;28;20112;-83
2022/09/21 09:08:54;;;;;;;16.25;9.80;;;333.50;2329.60;;;;;;5054217;28;20371;-80
2022/09/21 09:11:30;;;;;;;12.88;9.38;;;333.70;2329.60;;;;;;5054290;28;20110;-81
2022/09/21 09:14:37;;;;;;;16.10;10.27;;;333.70;2329.60;;;;;;5037230;28;20025;-79
2022/09/21 09:17:24;;;;;;;11.85;7.57;;;358.50;2329.60;;;;;;4977411;28;20052;-81
2022/09/21 09:20:25;;;;;;;8.23;5.53;;;358.80;2329.60;;;;;;5050756;28;20106;-80
2022/09/21 09:23:12;;;;;;;7.40;5.25;;;359.00;2329.60;;;;;;5025574;28;20128;-83
2022/09/21 09:25:41;;;;;;;8.18;5.90;;;359.00;2329.60;;;;;;5048056;28;20367;-81
2022/09/21 09:28:29;;;;;;;8.88;5.10;;;359.20;2329.60;;;;;;5056634;28;20029;-80
2022/09/21 09:31:09;;;;;;;10.27;5.95;;;359.20;2329.60;;;;;;5056509;28;20028;-83
2022/09/21 09:33:55;;;;;;;13.32;9.13;;;384.10;2329.60;;;;;;5054564;28;20541;-82
2022/09/21 09:36:24;;;;;;;12.38;6.80;;;384.30;2329.60;;;;;;5039351;28;20033;-83
2022/09/21 09:39:00;;;;;;;6.85;4.78;;;384.30;2329.60;;;;;;5036088;28;20494;-83
2022/09/21 09:41:35;;;;;;;5.93;3.80;;;384.60;2329.60;;;;;;5036056;28;20055;-82
2022/09/21 09:44:22;;;;;;;7.55;4.03;;;384.40;2329.60;;;;;;5050752;28;20043;-82
2022/09/21 09:46:50;;;;;;;10.23;4.93;;;384.60;2329.60;;;;;;5052335;28;20037;-80
2022/09/21 09:49:23;;;;;;;8.65;5.72;;;384.70;2329.60;;;;;;5052206;28;20111;-81
2022/09/21 09:51:50;;;;;;;8.13;5.80;;;384.90;2329.60;;;;;;5052850;28;20515;-81
2022/09/21 09:54:17;;;;;;;8.00;5.57;;;384.90;2329.60;;;;;;5036532;28;20032;-82
2022/09/21 09:56:44;;;;;;;9.60;5.32;;;384.90;2329.60;;;;;;5054113;28;20021;-81
2022/09/21 09:59:29;;;;;;;9.73;6.35;;;409.60;2355.20;;;;;;5036333;28;20056;-81
2022/09/21 10:02:17;;;;;;;7.07;5.15;;;409.60;2355.20;;;;;;5052803;28;20033;-80
2022/09/21 10:05:00;;;;;;;7.25;4.43;;;384.70;2329.60;;;;;;5035959;28;20051;-82
2022/09/21 10:07:39;;;;;;;7.25;5.32;;;384.70;2329.60;;;;;;5036218;28;20033;-80
2022/09/21 10:10:28;;;;;;;6.97;4.78;;;384.60;2329.60;;;;;;5035799;28;20025;-79
2022/09/21 10:12:56;;;;;;;12.70;7.22;;;384.60;2329.60;;;;;;5032234;28;20118;-80
2022/09/21 10:15:25;;;;;;;10.82;5.68;;;384.60;2329.60;;;;;;5035929;28;20462;-80
2022/09/21 10:18:16;;;;;;;7.80;5.75;;;384.50;2329.60;;;;;;5053734;28;20036;-82
2022/09/21 10:21:16;;;;;;;6.35;5.25;;;384.50;2329.60;;;;;;5036007;28;20033;-80
2022/09/21 10:23:55;;;;;;;8.60;4.70;;;384.60;2329.60;;;;;;5035269;28;20033;-80
2022/09/21 10:26:22;;;;;;;13.38;5.53;;;384.60;2329.60;;;;;;5035923;28;20065;-81
2022/09/21 10:28:59;;;;;;;8.40;5.63;;;384.60;2329.60;;;;;;5053704;28;20031;-81
2022/09/21 10:31:30;;;;;;;7.80;4.82;;;384.70;2329.60;;;;;;5035467;28;20033;-81
2022/09/21 10:34:15;;;;;;;6.53;4.10;;;384.70;2329.60;;;;;;5035686;28;20025;-82
2022/09/21 10:36:55;;;;;;;6.90;4.10;;;384.60;2329.60;;;;;;5035732;28;20468;-80
2022/09/21 10:39:23;;;;;;;8.63;4.00;;;384.60;2329.60;;;;;;5035336;28;20052;-82
2022/09/21 10:41:53;;;;;;;7.43;3.45;;;384.60;2329.60;;;;;;5035698;28;20033;-82
2022/09/21 10:44:22;;;;;;;4.15;2.45;;;384.60;2329.60;;;;;;5053729;28;20418;-81
2022/09/21 10:46:49;;;;;;;4.10;2.13;;;384.40;2329.60;;;;;;5052101;28;20029;-82
2022/09/21 10:49:23;;;;;;;7.53;2.40;;;359.00;2329.60;;;;;;5035676;28;20035;-81
2022/09/21 10:51:51;;;;;;;9.15;5.53;;;384.10;2329.60;;;;;;5035694;28;20021;-80
2022/09/21 10:54:28;;;;;;;10.65;6.90;;;359.30;2329.60;;;;;;5034965;28;20047;-81
2022/09/21 10:57:08;;;;;;;17.10;10.48;;;359.30;2329.60;;;;;;5036780;28;20071;-80
2022/09/21 10:59:36;;;;;;;12.95;8.52;;;359.20;2329.60;;;;;;5039317;28;20467;-81
2022/09/21 11:02:42;;;;;;;12.30;7.22;;;359.10;2329.60;;;;;;5039629;28;20029;-82
2022/09/21 11:05:14;;;;;;;8.95;6.45;;;359.20;2329.60;;;;;;5038815;28;20056;-80
2022/09/21 11:07:46;;;;;;;;;;;359.20;2329.60;;;;;;5039624;28;20024;-80
2022/09/21 11:10:26;;;;;;;10.85;7.18;;;359.30;2329.60;;;;;;5056403;28;19931;-80
2022/09/21 11:13:29;;;;;;;7.97;5.35;;;384.00;2329.60;;;;;;5039446;28;20115;-80
2022/09/21 11:16:02;;;;;;;;;;;359.30;2329.60;;;;;;5056505;28;20112;-80
2022/09/21 11:18:47;;;;;;;;;;;384.00;2329.60;;;;;;5039802;28;20278;-79
2022/09/21 11:21:21;;;;;;;13.48;9.45;;;384.40;2329.60;;;;;;5055588;28;19909;-81
2022/09/21 11:24:21;;;;;;;12.70;7.35;;;384.30;2329.60;;;;;;5039758;28;20116;-84
2022/09/21 11:27:02;;;;;;;10.35;7.50;;;384.40;2329.60;;;;;;5039824;28;20029;-82
2022/09/21 11:29:31;;;;;;;15.38;11.43;;;384.40;2329.60;;;;;;5039796;28;20078;-82
2022/09/21 11:32:03;;;;;;;12.80;10.63;;;384.40;2329.60;;;;;;5039435;28;20112;-81
2022/09/21 11:34:38;;;;;;;11.10;7.90;;;384.40;2329.60;;;;;;5056701;28;20025;-81
2022/09/21 11:37:30;;;;;;;12.13;8.80;;;384.50;2329.60;;;;;;5055979;28;20039;-80
2022/09/21 11:40:06;;;;;;;25.85;16.67;;;384.70;2329.60;;;;;;5039561;28;20033;-83
2022/09/21 11:43:05;;;;;;;17.52;13.05;;;384.90;2329.60;;;;;;5039165;28;20478;-84
2022/09/21 11:45:59;;;;;;;7.95;6.38;;;410.00;2355.20;;;;;;5039096;28;20394;-83
2022/09/21 11:48:47;;;;;;;10.40;7.22;;;409.90;2355.20;;;;;;5056543;28;20057;-80
2022/09/21 11:51:28;;;;;;;11.40;5.63;;;409.70;2355.20;;;;;;5038798;28;20493;-81
2022/09/21 11:54:28;;;;;;;5.38;3.70;;;409.80;2355.20;;;;;;5055240;28;20466;-78
2022/09/21 11:57:00;;;;;;;6.03;2.80;;;409.80;2355.20;;;;;;5055160;28;20517;-82
2022/09/21 12:00:04;;;;;;;7.43;3.67;;;410.20;2355.20;;;;;;5055448;28;20470;-81
2022/09/21 12:02:52;;;;;;;5.95;4.10;;;;;;;;;;5027289;28;20025;-80
2022/09/21 12:05:24;;;;;;;6.43;3.47;;;;;;;;;;5055037;28;20041;-80
2022/09/21 12:07:50;;;;;;;6.80;3.80;;;;;;;;;;5054472;28;20473;-80
2022/09/21 12:10:36;;;;;;;7.57;5.00;;;;;;;;;;5055718;28;20363;-81
2022/09/21 12:13:08;;;;;;;12.98;5.80;;;;;;;;;;5057063;28;20029;-81
2022/09/21 12:15:34;;;;;;;10.55;5.82;;;410.40;2355.20;;;;;;5060081;28;20031;-81
2022/09/21 12:18:37;;;;;;;10.70;5.57;;;410.30;2355.20;;;;;;5060074;28;20068;-81
2022/09/21 12:21:16;;;;;;;4.50;2.60;;;435.50;2355.20;;;;;;5054957;28;20021;-83
2022/09/21 12:23:47;;;;;;;8.55;4.07;;;460.80;2380.80;;;;;;5037922;28;20029;-83
2022/09/21 12:26:19;;;;;;;5.82;3.00;;;461.30;2380.80;;;;;;5038070;28;20532;-83
2022/09/21 12:28:55;;;;;;;4.33;2.77;;;486.40;2380.80;;;;;;5038183;28;20470;-84
2022/09/21 12:31:30;;;;;;;6.05;3.47;;;486.60;2380.80;;;;;;5037817;28;20029;-84
2022/09/21 12:34:04;;;;;;;5.00;2.88;;;461.70;2380.80;;;;;;5038076;28;20027;-83
2022/09/21 12:36:52;;;;;;;4.20;2.50;;;486.60;2380.80;;;;;;5056142;28;20113;-82
2022/09/21 12:39:25;;;;;;;5.13;2.60;;;461.50;2380.80;;;;;;5070799;28;20033;-85
2022/09/21 12:41:57;;;;;;;5.15;2.45;;;461.70;2380.80;;;;;;5054680;28;20035;-85
2022/09/21 12:44:50;;;;;;;4.68;2.75;;;461.60;2380.80;;;;;;5037844;28;20041;-85
2022/09/21 12:47:24;;;;;;;3.40;2.00;;;486.50;2380.80;;;;;;5056020;28;20017;-85
2022/09/21 12:49:55;;;;;;;4.63;2.03;;;486.80;2355.20;;;;;;5038192;28;20467;-85
2022/09/21 12:52:26;;;;;;;2.80;1.73;;;487.10;2329.60;;;;;;5037735;28;20025;-85
2022/09/21 12:55:23;;;;;;;3.78;1.83;;;487.20;2278.40;;;;;;5054766;28;20025;-85
2022/09/21 12:58:28;;;;;;;3.72;2.05;;;486.80;2252.80;;;;;;5054680;28;20029;-86
2022/09/21 13:01:28;;;;;;;4.25;2.60;;;461.50;2304.00;;;;;;5054589;28;20078;-85